• Join FlightAware (Why Join?)
  • Login
  • US Flag 
02:32PM EDT


 

Airport Tracker/Info


-or-


 

Live Flight TrackerFlight Track Log ✈ UAL481 ✈ 14-Jun-2013 ✈ KORD - KMSP

Flight Track Log - Related Links

Times and Time Zones

All times are in EDT time to prevent confusion due to time zone crossing. See the UAL481 flight status page for this flight to view local times or setup timezone preferences in your user account.

Time Position Orientation Groundspeed Altitude Reporting Facility
EDT Latitude Longitude Course Direction KTS MPH feet Rate Location/Type
09:59PM 42.0333 -87.9333 346° North 188 216 3,100  Level Chicago TRACON
10:00PM 42.2170 -87.9834 350° North  Level FlightAware Approximate
10:00PM 42.1447 -87.8867 17° North 262 302 7,900  Level Chicago Center
10:01PM 42.3021 -88.0047 350° North  Level FlightAware Approximate
10:01PM 42.2172 -87.8478 22° Northeast 279 321 11,500  Level Chicago Center
10:02PM 42.3855 -88.0344 340° North  Level FlightAware Approximate
10:02PM 42.3064 -87.8019 21° North 288 331 14,800  Level Chicago Center
10:03PM 42.4693 -88.0605 352° North  Level FlightAware Approximate
10:03PM 42.3875 -87.8114 355° North 287 330 16,200  Level Chicago Center
10:04PM 42.5505 -88.0946 346° North  Level FlightAware Approximate
10:04PM 42.4681 -87.8656 334° Northwest 320 368 17,700  Level Chicago Center
10:05PM 42.5600 -87.9236 335° Northwest 364 419 19,500 2,280 Climbing Chicago Center
10:07PM 42.6533 -87.9828 335° Northwest 370 426 22,400 2,340 Climbing Chicago Center
10:08PM 42.7269 -88.0769 317° Northwest 363 418 24,300 1,380 Climbing Chicago Center
10:09PM 42.8036 -88.1797 315° West 385 443 25,300 1,320 Climbing Chicago Center
10:10PM 42.8833 -88.2897 315° West 404 465 27,100 1,620 Climbing Chicago Center
10:11PM 42.9636 -88.4000 315° West 408 470 28,700 1,740 Climbing Chicago Center
10:12PM 43.0447 -88.5108 315° West 408 470 30,700 1,620 Climbing Chicago Center
10:13PM 43.1383 -88.6397 315° West 407 468 32,000 600 Climbing Chicago Center
10:14PM 43.2175 -88.7492 315° West 402 463 32,000  Level Chicago Center
10:15PM 43.2972 -88.8606 315° West 404 465 32,000  Level Chicago Center
10:16PM 43.3772 -88.9703 315° West 403 464 32,000  Level Chicago Center
10:17PM 43.4567 -89.0814 315° West 404 465 32,000  Level Chicago Center
10:18PM 43.5361 -89.1925 315° West 404 465 32,000  Level Chicago Center
10:19PM 43.6164 -89.3044 315° West 409 471 32,000  Level Chicago Center
10:20PM 43.6969 -89.4175 315° West 411 473 32,000  Level Chicago Center
10:21PM 43.7769 -89.5314 314° West 411 473 32,000  Level Chicago Center
10:22PM 43.8567 -89.6442 314° West 410 472 32,000  Level Chicago Center
10:23PM 43.9356 -89.7589 314° West 410 472 32,000  Level Chicago Center
10:24PM 44.0144 -89.8728 314° West 411 473 32,000  Level Chicago Center
10:25PM 44.0961 -90.0167 308° West 409 471 32,000  Level Minneapolis Center
10:26PM 44.1444 -90.1603 295° West 409 471 32,000  Level Minneapolis Center
10:27PM 44.1894 -90.3042 294° West 408 470 32,000  Level Minneapolis Center
10:28PM 44.2158 -90.4567 284° West 404 465 32,000  Level Minneapolis Center
10:29PM 44.2433 -90.6017 285° West 403 464 32,000  Level Minneapolis Center
10:30PM 44.2719 -90.7481 285° West 398 458 32,000  Level Minneapolis Center
10:31PM 44.3008 -90.8947 285° West 397 457 32,000 -720 Level Minneapolis Center
10:32PM 44.3328 -91.0583 285° West 393 452 30,600 -1,500 Descending Minneapolis Center
10:33PM 44.3631 -91.2117 285° West 404 465 29,000 -1,500 Descending Minneapolis Center
10:34PM 44.3944 -91.3661 286° West 411 473 27,600 -1,440 Descending Minneapolis Center
10:35PM 44.4261 -91.5119 287° West 402 463 26,100 -1,320 Descending Minneapolis Center
10:36PM 44.4697 -91.6161 300° West 393 452 24,900 -1,860 Descending Minneapolis Center
10:37PM 44.5397 -91.7950 299° West 376 433 22,300 -2,340 Descending Minneapolis Center
10:38PM 44.5869 -91.9219 298° West 371 427 20,200 -2,160 Descending Minneapolis Center
10:39PM 44.6339 -92.0372 300° West 346 398 18,000 -2,400 Descending Minneapolis Center
10:40PM 44.6864 -92.1392 306° West 325 374 15,400 -2,520 Descending Minneapolis Center
10:41PM 44.7269 -92.2483 298° West 317 365 12,900 -2,160 Descending Minneapolis Center
10:42PM 44.7828 -92.3456 309° West 321 369 11,000 -1,440 Descending Minneapolis Center
10:43PM 44.8353 -92.4425 307° West 313 360 10,000 -540 Descending Minneapolis Center
10:44PM 44.8656 -92.5789 287° West 306 352 10,000  Level Minneapolis Center
10:45PM 44.8831 -92.6947 282° West 304 350 10,000  Level Minneapolis Center
10:46PM 44.8989 -92.8086 281° West 299 344 10,000  Level Minneapolis Center
10:47PM 44.9150 -92.9233 281° West 301 346 10,000 -540 Level Minneapolis Center
10:48PM 44.9303 -93.0278 282° West 279 321 8,900 -1,020 Descending Minneapolis Center
10:49PM 44.9669 -93.1189 300° West 277 319 8,000 -1,260 Descending Minneapolis Center
10:50PM 45.0203 -93.2217 306° West 273 314 6,400 -1,860 Descending Minneapolis Center
10:51PM 45.0469 -93.3139 292° West 265 305 4,200 -2,220 Descending Minneapolis Center